Time;durP1;ratioP1;P1;durP2;ratioP2;P2;SDS_P1;SDS_P2;PMS_P1;PMS_P2;Temp;Humidity;BMP_temperature;BMP_pressure;BME280_temperature;BME280_humidity;BME280_pressure;Samples;Min_cycle;Max_cycle;Signal;HPM_P1;HPM_P2
2021/07/18 00:01:55;;;;;;;516.10;421.80;;;;;;;;;;4907510;29;20123;-79
2021/07/18 00:04:21;;;;;;;520.30;423.58;;;;;;;;;;4909217;29;20039;-80
2021/07/18 00:06:47;;;;;;;518.70;421.33;;;;;;;;;;4902834;29;20056;-80
2021/07/18 00:09:13;;;;;;;519.75;424.02;;;;;;;;;;4904063;29;20111;-78
2021/07/18 00:11:39;;;;;;;515.22;415.65;;;;;;;;;;4901399;29;20126;-79
2021/07/18 00:14:05;;;;;;;519.55;422.15;;;;;;;;;;4910280;29;20444;-80
2021/07/18 00:16:32;;;;;;;517.00;418.50;;;;;;;;;;4892165;29;20063;-79
2021/07/18 00:18:58;;;;;;;515.08;416.35;;;;;;;;;;4893792;29;20082;-79
2021/07/18 00:21:24;;;;;;;515.90;419.50;;;;;;;;;;4901934;29;20075;-82
2021/07/18 00:23:51;;;;;;;518.40;421.48;;;;;;;;;;4899873;29;20068;-82
2021/07/18 00:26:17;;;;;;;516.95;415.88;;;;;;;;;;4894389;29;20040;-81
2021/07/18 00:28:43;;;;;;;516.33;417.80;;;;;;;;;;4908759;29;20028;-79
2021/07/18 00:31:09;;;;;;;514.42;414.80;;;;;;;;;;4896658;29;20059;-78
2021/07/18 00:33:35;;;;;;;518.92;424.73;;;;;;;;;;4890341;29;20035;-80
2021/07/18 00:36:01;;;;;;;516.90;425.77;;;;;;;;;;4893401;29;20076;-80
2021/07/18 00:38:28;;;;;;;517.53;412.48;;;;;;;;;;4894840;29;20070;-80
2021/07/18 00:40:57;;;;;;;517.17;421.95;;;;;;;;;;4907758;29;20024;-79
2021/07/18 00:43:24;;;;;;;518.03;420.33;;;;;;;;;;4894282;29;20029;-82
2021/07/18 00:45:55;;;;;;;517.72;422.40;;;;;;;;;;4894324;29;20070;-80
2021/07/18 00:48:21;;;;;;;789.92;443.67;;;;;;;;;;4899227;29;20029;-81
2021/07/18 00:50:48;;;;;;;515.78;418.75;;;;;;;;;;4906189;29;20029;-80
2021/07/18 00:53:13;;;;;;;822.63;441.85;;;;;;;;;;4900882;29;20044;-80
2021/07/18 00:55:43;;;;;;;516.28;417.45;;;;;;;;;;4893444;29;20136;-84
2021/07/18 00:58:10;;;;;;;521.72;428.25;;;;;;;;;;4903696;29;20063;-79
2021/07/18 01:00:36;;;;;;;520.35;427.45;;;;;;;;;;4898576;29;20029;-82
2021/07/18 01:03:02;;;;;;;521.00;426.85;;;;;;;;;;4901308;29;20039;-81
2021/07/18 01:05:28;;;;;;;515.65;422.65;;;;;;;;;;4899723;29;20379;-81
2021/07/18 01:07:54;;;;;;;517.67;426.02;;;;;;;;;;4892222;29;20037;-80
2021/07/18 01:10:20;;;;;;;516.88;420.33;;;;;;;;;;4907610;29;21655;-80
2021/07/18 01:12:46;;;;;;;514.00;417.67;;;;;;;;;;4891028;29;20040;-82
2021/07/18 01:15:13;;;;;;;515.58;420.05;;;;;;;;;;4900841;29;20028;-81
2021/07/18 01:17:39;;;;;;;518.83;421.85;;;;;;;;;;4895595;29;20072;-81
2021/07/18 01:20:08;;;;;;;520.40;428.48;;;;;;;;;;4905022;29;20152;-80
2021/07/18 01:22:34;;;;;;;518.97;426.35;;;;;;;;;;4898512;29;20043;-82
2021/07/18 01:25:01;;;;;;;515.65;421.52;;;;;;;;;;4909973;29;20043;-82
2021/07/18 01:27:27;;;;;;;519.17;427.52;;;;;;;;;;4903644;29;20530;-81
2021/07/18 01:29:53;;;;;;;517.08;423.65;;;;;;;;;;4899141;29;20119;-82
2021/07/18 01:32:19;;;;;;;517.00;424.30;;;;;;;;;;4908028;29;20044;-80
2021/07/18 01:34:45;;;;;;;518.13;424.88;;;;;;;;;;4905675;29;20169;-79
2021/07/18 01:37:12;;;;;;;515.13;422.13;;;;;;;;;;4898449;29;20039;-81
2021/07/18 01:39:38;;;;;;;516.33;428.08;;;;;;;;;;4898928;29;20115;-81
2021/07/18 01:42:04;;;;;;;519.83;428.08;;;;;;;;;;4903263;29;20508;-83
2021/07/18 01:44:30;;;;;;;516.53;427.15;;;;;;;;;;4888647;29;20025;-81
2021/07/18 01:46:56;;;;;;;518.30;425.50;;;;;;;;;;4899101;29;20044;-82
2021/07/18 01:49:22;;;;;;;516.85;425.05;;;;;;;;;;4903505;29;20059;-81
2021/07/18 01:51:48;;;;;;;518.50;433.20;;;;;;;;;;4899722;29;20024;-79
2021/07/18 01:54:14;;;;;;;518.38;428.52;;;;;;;;;;4895516;29;20060;-81
2021/07/18 01:56:41;;;;;;;519.70;431.42;;;;;;;;;;4897099;29;20036;-81
2021/07/18 01:59:07;;;;;;;516.10;425.48;;;;;;;;;;4905688;29;20032;-81
2021/07/18 02:01:34;;;;;;;517.95;431.40;;;;;;;;;;4916958;29;20112;-82
2021/07/18 02:04:01;;;;;;;517.88;428.10;;;;;;;;;;4900206;29;20024;-83
2021/07/18 02:06:27;;;;;;;518.30;429.58;;;;;;;;;;4907380;29;20050;-81
2021/07/18 02:08:54;;;;;;;521.78;436.90;;;;;;;;;;4903360;29;20020;-82
2021/07/18 02:11:21;;;;;;;519.28;434.25;;;;;;;;;;4898045;29;20033;-82
2021/07/18 02:13:48;;;;;;;518.42;431.45;;;;;;;;;;4889756;29;20044;-83
2021/07/18 02:16:13;;;;;;;518.50;431.77;;;;;;;;;;4898421;29;20025;-81
2021/07/18 02:18:40;;;;;;;520.20;434.17;;;;;;;;;;4894267;29;20074;-81
2021/07/18 02:21:06;;;;;;;518.60;432.33;;;;;;;;;;4911675;29;20031;-82
2021/07/18 02:23:32;;;;;;;515.08;425.80;;;;;;;;;;4896789;29;20032;-81
2021/07/18 02:25:58;;;;;;;519.15;428.98;;;;;;;;;;4895551;29;20522;-81
2021/07/18 02:28:23;;;;;;;517.50;430.73;;;;;;;;;;4908046;29;20628;-80
2021/07/18 02:30:49;;;;;;;517.78;430.80;;;;;;;;;;4893990;29;20068;-83
2021/07/18 02:33:15;;;;;;;516.20;428.08;;;;;;;;;;4901485;29;20028;-81
2021/07/18 02:35:41;;;;;;;515.50;424.17;;;;;;;;;;4896785;29;20136;-84
2021/07/18 02:38:07;;;;;;;515.70;423.58;;;;;;;;;;4908964;29;20036;-82
2021/07/18 02:40:33;;;;;;;515.13;419.67;;;;;;;;;;4890534;29;20025;-82
2021/07/18 02:42:59;;;;;;;516.88;427.77;;;;;;;;;;4903409;29;20447;-81
2021/07/18 02:45:25;;;;;;;520.28;433.80;;;;;;;;;;4907661;29;20140;-82
2021/07/18 02:47:52;;;;;;;515.15;423.90;;;;;;;;;;4898029;29;20027;-82
2021/07/18 02:50:19;;;;;;;516.97;425.77;;;;;;;;;;4897380;29;20055;-81
2021/07/18 02:52:45;;;;;;;517.78;425.25;;;;;;;;;;4890798;29;20084;-81
2021/07/18 02:55:12;;;;;;;514.78;418.48;;;;;;;;;;4908818;29;20087;-81
2021/07/18 02:57:38;;;;;;;520.35;427.45;;;;;;;;;;4900926;29;20474;-82
2021/07/18 03:00:08;;;;;;;513.80;418.20;;;;;;;;;;4905361;29;20020;-82
2021/07/18 03:02:34;;;;;;;517.05;420.77;;;;;;;;;;4905046;29;20047;-80
2021/07/18 03:05:01;;;;;;;516.28;423.10;;;;;;;;;;4905746;29;20032;-81
2021/07/18 03:07:27;;;;;;;514.13;418.13;;;;;;;;;;4901485;29;20128;-80
2021/07/18 03:09:53;;;;;;;516.20;418.55;;;;;;;;;;4906596;29;20605;-81
2021/07/18 03:12:19;;;;;;;521.10;428.13;;;;;;;;;;4910799;29;20686;-82
2021/07/18 03:14:45;;;;;;;517.75;423.40;;;;;;;;;;4898371;29;20103;-81
2021/07/18 03:17:11;;;;;;;520.60;427.63;;;;;;;;;;4893850;29;20028;-81
2021/07/18 03:19:37;;;;;;;519.70;426.55;;;;;;;;;;4873247;29;20361;-80
2021/07/18 03:22:03;;;;;;;514.10;420.58;;;;;;;;;;4859874;29;20089;-81
2021/07/18 03:24:29;;;;;;;519.28;427.55;;;;;;;;;;4859532;29;20029;-82
2021/07/18 03:26:55;;;;;;;517.88;420.60;;;;;;;;;;4865344;29;20060;-81
2021/07/18 03:29:21;;;;;;;516.25;419.77;;;;;;;;;;4872460;29;20029;-82
2021/07/18 03:31:47;;;;;;;512.25;415.15;;;;;;;;;;4864964;29;20043;-80
2021/07/18 03:34:13;;;;;;;518.25;425.45;;;;;;;;;;4871821;29;20507;-82
2021/07/18 03:36:39;;;;;;;512.13;414.02;;;;;;;;;;4863007;29;20043;-80
2021/07/18 03:39:05;;;;;;;514.25;415.77;;;;;;;;;;4865780;29;20045;-82
2021/07/18 03:41:31;;;;;;;518.78;421.83;;;;;;;;;;4867781;29;20036;-79
2021/07/18 03:43:57;;;;;;;515.20;413.70;;;;;;;;;;4866288;29;20093;-80
2021/07/18 03:46:23;;;;;;;515.53;421.98;;;;;;;;;;4871223;29;20053;-82
2021/07/18 03:48:49;;;;;;;518.20;424.30;;;;;;;;;;4859123;29;20052;-80
2021/07/18 03:51:15;;;;;;;512.78;413.15;;;;;;;;;;4868837;29;20033;-81
2021/07/18 03:53:41;;;;;;;519.00;427.02;;;;;;;;;;4867075;29;20081;-84
2021/07/18 03:56:09;;;;;;;520.17;429.83;;;;;;;;;;4870112;29;20033;-80
2021/07/18 03:58:35;;;;;;;513.40;421.50;;;;;;;;;;4868655;29;20017;-82
2021/07/18 04:01:01;;;;;;;515.33;422.98;;;;;;;;;;4861958;29;20330;-80
2021/07/18 04:03:28;;;;;;;515.42;424.75;;;;;;;;;;4866740;29;20033;-80
2021/07/18 04:05:54;;;;;;;521.15;432.00;;;;;;;;;;4876901;29;20041;-80
2021/07/18 04:08:20;;;;;;;520.17;428.85;;;;;;;;;;4872176;29;20028;-81
2021/07/18 04:10:46;;;;;;;518.10;427.70;;;;;;;;;;4866497;29;20653;-80
2021/07/18 04:13:12;;;;;;;514.67;417.73;;;;;;;;;;4863223;29;20065;-83
2021/07/18 04:15:38;;;;;;;515.97;425.58;;;;;;;;;;4862489;29;20029;-81
2021/07/18 04:18:07;;;;;;;516.05;426.30;;;;;;;;;;4874266;29;20047;-82
2021/07/18 04:20:33;;;;;;;514.30;422.80;;;;;;;;;;4871897;29;20037;-81
2021/07/18 04:22:59;;;;;;;513.15;414.45;;;;;;;;;;4875156;29;20044;-81
2021/07/18 04:25:25;;;;;;;515.80;423.83;;;;;;;;;;4862733;29;20131;-82
2021/07/18 04:27:51;;;;;;;517.80;422.00;;;;;;;;;;4869685;29;20036;-82
2021/07/18 04:30:17;;;;;;;520.22;431.63;;;;;;;;;;4876043;29;20032;-81
2021/07/18 04:32:43;;;;;;;521.13;428.85;;;;;;;;;;4873537;29;20033;-81
2021/07/18 04:35:09;;;;;;;515.67;423.50;;;;;;;;;;4863133;29;20025;-83
2021/07/18 04:37:39;;;;;;;516.17;428.35;;;;;;;;;;4865171;29;20334;-81
2021/07/18 04:40:05;;;;;;;511.77;417.48;;;;;;;;;;4873738;29;20077;-81
2021/07/18 04:42:31;;;;;;;517.38;431.08;;;;;;;;;;4874214;29;20036;-81
2021/07/18 04:44:58;;;;;;;516.00;426.80;;;;;;;;;;4865869;29;20047;-82
2021/07/18 04:47:24;;;;;;;515.58;424.63;;;;;;;;;;4877821;29;20404;-81
2021/07/18 04:49:50;;;;;;;513.17;423.48;;;;;;;;;;4863074;29;20120;-83
2021/07/18 04:52:20;;;;;;;515.17;427.02;;;;;;;;;;4862544;29;20128;-80
2021/07/18 04:54:45;;;;;;;518.03;429.37;;;;;;;;;;4878272;29;20420;-82
2021/07/18 04:57:11;;;;;;;519.28;433.92;;;;;;;;;;4879020;29;20033;-82
2021/07/18 04:59:38;;;;;;;516.97;427.13;;;;;;;;;;4872270;29;20449;-82
2021/07/18 05:02:04;;;;;;;518.50;433.70;;;;;;;;;;4875989;29;20029;-81
2021/07/18 05:04:30;;;;;;;515.92;431.58;;;;;;;;;;4864889;29;20066;-80
2021/07/18 05:06:56;;;;;;;519.40;437.65;;;;;;;;;;4872882;29;20040;-83
2021/07/18 05:09:22;;;;;;;516.50;424.33;;;;;;;;;;4870551;29;20036;-83
2021/07/18 05:11:48;;;;;;;517.03;432.00;;;;;;;;;;4891943;29;20079;-82
2021/07/18 05:14:14;;;;;;;519.35;436.20;;;;;;;;;;4875917;29;20043;-81
2021/07/18 05:16:40;;;;;;;517.20;433.10;;;;;;;;;;4874622;29;20088;-82
2021/07/18 05:19:06;;;;;;;516.92;433.95;;;;;;;;;;4895345;29;20506;-83
2021/07/18 05:21:32;;;;;;;517.30;425.95;;;;;;;;;;4900620;29;20367;-81
2021/07/18 05:23:58;;;;;;;518.03;425.92;;;;;;;;;;4902786;29;20463;-81
2021/07/18 05:26:24;;;;;;;519.88;432.88;;;;;;;;;;4899341;29;20048;-81
2021/07/18 05:28:50;;;;;;;518.22;433.30;;;;;;;;;;4907850;29;20119;-80
2021/07/18 05:31:16;;;;;;;518.28;433.00;;;;;;;;;;4921002;29;20139;-81
2021/07/18 05:33:42;;;;;;;516.95;433.17;;;;;;;;;;4906496;29;20031;-81
2021/07/18 05:36:11;;;;;;;519.05;436.33;;;;;;;;;;4906867;29;20577;-83
2021/07/18 05:38:38;;;;;;;519.17;438.33;;;;;;;;;;4899233;29;20032;-83
2021/07/18 05:41:04;;;;;;;515.47;429.08;;;;;;;;;;4909778;29;20028;-82
2021/07/18 05:43:30;;;;;;;518.22;438.23;;;;;;;;;;4901959;29;20055;-81
2021/07/18 05:45:57;;;;;;;521.85;442.52;;;;;;;;;;4908622;29;20349;-82
2021/07/18 05:48:24;;;;;;;519.00;441.42;;;;;;;;;;4905744;29;20031;-82
2021/07/18 05:50:50;;;;;;;524.47;446.73;;;;;;;;;;4904884;29;20063;-82
2021/07/18 05:53:16;;;;;;;517.80;439.42;;;;;;;;;;4916778;29;20042;-83
2021/07/18 05:55:45;;;;;;;517.83;436.77;;;;;;;;;;4908529;29;20028;-81
2021/07/18 05:58:18;;;;;;;521.25;444.02;;;;;;;;;;4900272;29;20660;-84
2021/07/18 06:00:44;;;;;;;514.67;431.98;;;;;;;;;;4907038;29;20065;-85
2021/07/18 06:03:11;;;;;;;523.17;448.60;;;;;;;;;;4912980;29;20039;-86
2021/07/18 06:05:39;;;;;;;527.05;452.42;;;;;;;;;;4908460;29;20216;-83
2021/07/18 06:08:05;;;;;;;517.60;440.67;;;;;;;;;;4905567;29;20372;-85
2021/07/18 06:10:35;;;;;;;517.72;439.80;;;;;;;;;;4914779;29;20040;-86
2021/07/18 06:13:02;;;;;;;518.95;440.45;;;;;;;;;;4907347;29;20739;-87
2021/07/18 06:15:32;;;;;;;518.00;443.23;;;;;;;;;;4914989;29;20031;-84
2021/07/18 06:17:57;;;;;;;526.85;451.95;;;;;;;;;;4907878;29;20080;-83
2021/07/18 06:20:23;;;;;;;518.53;446.33;;;;;;;;;;4913822;29;20028;-84
2021/07/18 06:22:52;;;;;;;520.20;449.48;;;;;;;;;;4899426;29;20036;-80
2021/07/18 06:25:18;;;;;;;520.42;449.80;;;;;;;;;;4914970;29;20027;-80
2021/07/18 06:27:46;;;;;;;524.33;451.75;;;;;;;;;;4903639;29;20119;-80
2021/07/18 06:30:13;;;;;;;520.40;451.45;;;;;;;;;;4914966;29;20477;-79
2021/07/18 06:32:39;;;;;;;519.45;453.23;;;;;;;;;;4899517;29;20028;-79
2021/07/18 06:35:05;;;;;;;518.83;447.88;;;;;;;;;;4904412;29;20463;-81
2021/07/18 06:37:37;;;;;;;519.67;452.85;;;;;;;;;;4902504;29;20029;-79
2021/07/18 06:40:04;;;;;;;521.92;455.67;;;;;;;;;;4912165;29;20344;-81
2021/07/18 06:42:30;;;;;;;518.95;451.73;;;;;;;;;;4913346;29;20095;-76
2021/07/18 06:44:59;;;;;;;518.53;456.58;;;;;;;;;;4908465;29;20028;-80
2021/07/18 06:47:25;;;;;;;520.33;456.50;;;;;;;;;;4922007;29;20048;-79
2021/07/18 06:49:51;;;;;;;523.92;464.88;;;;;;;;;;4911148;29;20038;-81
2021/07/18 06:52:17;;;;;;;520.50;461.45;;;;;;;;;;4916071;29;20438;-81
2021/07/18 06:54:43;;;;;;;524.25;464.77;;;;;;;;;;4912108;29;20462;-80
2021/07/18 06:57:09;;;;;;;524.47;466.02;;;;;;;;;;4906976;29;20019;-79
2021/07/18 06:59:34;;;;;;;522.80;464.25;;;;;;;;;;4899328;29;20036;-81
2021/07/18 07:02:01;;;;;;;528.63;469.55;;;;;;;;;;4906067;29;20055;-79
2021/07/18 07:04:26;;;;;;;525.90;468.05;;;;;;;;;;4910097;29;20091;-81
2021/07/18 07:06:52;;;;;;;526.58;468.55;;;;;;;;;;4906191;29;20084;-81
2021/07/18 07:09:18;;;;;;;530.22;471.90;;;;;;;;;;4906856;29;20020;-79
2021/07/18 07:11:44;;;;;;;532.75;474.42;;;;;;;;;;4905719;29;20024;-80
2021/07/18 07:14:10;;;;;;;526.85;468.85;;;;;;;;;;4901761;29;20028;-80
2021/07/18 07:16:36;;;;;;;530.58;472.67;;;;;;;;;;4904574;29;20024;-79
2021/07/18 07:19:03;;;;;;;530.13;471.98;;;;;;;;;;4897319;29;20048;-81
2021/07/18 07:21:29;;;;;;;532.92;474.77;;;;;;;;;;4897385;29;20032;-80
2021/07/18 07:23:55;;;;;;;537.80;476.42;;;;;;;;;;4897519;29;20118;-78
2021/07/18 07:26:21;;;;;;;532.70;474.55;;;;;;;;;;4897215;29;20036;-78
2021/07/18 07:28:47;;;;;;;537.25;479.10;;;;;;;;;;4897170;29;20035;-80
2021/07/18 07:31:13;;;;;;;540.83;482.42;;;;;;;;;;4897276;29;20471;-80
2021/07/18 07:33:39;;;;;;;536.85;478.55;;;;;;;;;;4906140;29;20032;-80
2021/07/18 07:36:05;;;;;;;546.47;488.00;;;;;;;;;;4897115;29;20032;-79
2021/07/18 07:38:31;;;;;;;538.50;480.40;;;;;;;;;;4896951;29;20056;-78
2021/07/18 07:40:58;;;;;;;540.35;482.08;;;;;;;;;;4896755;29;20036;-80
2021/07/18 07:43:24;;;;;;;549.05;490.50;;;;;;;;;;4897054;29;20020;-79
2021/07/18 07:45:50;;;;;;;551.88;493.35;;;;;;;;;;4896957;29;20040;-79
2021/07/18 07:48:16;;;;;;;550.80;492.30;;;;;;;;;;4897185;29;20035;-79
2021/07/18 07:50:42;;;;;;;548.97;490.63;;;;;;;;;;4909199;29;20019;-80
2021/07/18 07:53:08;;;;;;;546.33;488.23;;;;;;;;;;4915926;29;20024;-80
2021/07/18 07:55:34;;;;;;;550.35;491.75;;;;;;;;;;4915847;29;20019;-79
2021/07/18 07:58:01;;;;;;;554.35;495.70;;;;;;;;;;4915815;29;20102;-79
2021/07/18 08:00:27;;;;;;;555.53;497.05;;;;;;;;;;4912371;29;20447;-80
2021/07/18 08:02:53;;;;;;;559.50;500.92;;;;;;;;;;4897080;29;20122;-80
2021/07/18 08:05:20;;;;;;;562.35;503.63;;;;;;;;;;4898655;29;20433;-80
2021/07/18 08:07:46;;;;;;;559.75;501.30;;;;;;;;;;4914610;29;20023;-80
2021/07/18 08:10:13;;;;;;;552.03;493.80;;;;;;;;;;4915660;29;20036;-78
2021/07/18 08:12:39;;;;;;;559.38;500.88;;;;;;;;;;4915275;29;20735;-79
2021/07/18 08:15:07;;;;;;;556.00;497.85;;;;;;;;;;4915443;29;20034;-79
2021/07/18 08:17:34;;;;;;;558.55;500.33;;;;;;;;;;4897945;29;20176;-79
2021/07/18 08:20:00;;;;;;;561.33;502.85;;;;;;;;;;4896634;29;20144;-79
2021/07/18 08:22:26;;;;;;;568.72;510.02;;;;;;;;;;4913201;29;20024;-78
2021/07/18 08:24:52;;;;;;;573.50;514.88;;;;;;;;;;4910551;29;20403;-79
2021/07/18 08:27:18;;;;;;;563.30;504.77;;;;;;;;;;4914778;29;20039;-79
2021/07/18 08:29:45;;;;;;;568.33;510.00;;;;;;;;;;4932499;29;20020;-80
2021/07/18 08:32:11;;;;;;;571.95;513.42;;;;;;;;;;4931876;29;20168;-78
2021/07/18 08:34:36;;;;;;;568.50;510.10;;;;;;;;;;4916651;29;20111;-78
2021/07/18 08:37:03;;;;;;;574.50;516.05;;;;;;;;;;4913300;29;20039;-80
2021/07/18 08:39:28;;;;;;;570.28;512.00;;;;;;;;;;4896846;29;20031;-78
2021/07/18 08:41:54;;;;;;;578.80;519.95;;;;;;;;;;4910533;29;20032;-79
2021/07/18 08:44:24;;;;;;;570.88;512.22;;;;;;;;;;4914979;29;20024;-79
2021/07/18 08:46:50;;;;;;;579.30;520.75;;;;;;;;;;4915359;29;20047;-79
2021/07/18 08:49:16;;;;;;;581.03;522.42;;;;;;;;;;4898370;29;20032;-79
2021/07/18 08:51:42;;;;;;;578.22;519.95;;;;;;;;;;4915285;29;20459;-79
2021/07/18 08:54:08;;;;;;;578.97;520.78;;;;;;;;;;4915402;29;20031;-79
2021/07/18 08:56:36;;;;;;;591.67;532.60;;;;;;;;;;4914775;29;20063;-78
2021/07/18 08:59:06;;;;;;;587.95;529.22;;;;;;;;;;4914903;29;20086;-79
2021/07/18 09:01:33;;;;;;;587.03;528.45;;;;;;;;;;4915217;29;20482;-79
2021/07/18 09:03:58;;;;;;;579.05;520.67;;;;;;;;;;4915070;29;20439;-78
2021/07/18 09:06:37;;;;;;;597.40;538.70;;;;;;;;;;4903864;29;20037;-79
2021/07/18 09:09:06;;;;;;;592.28;533.63;;;;;;;;;;4895722;29;20088;-79
2021/07/18 09:11:32;;;;;;;607.85;548.72;;;;;;;;;;4912892;29;20089;-78
2021/07/18 09:14:02;;;;;;;603.78;545.00;;;;;;;;;;4912832;29;20059;-78
2021/07/18 09:16:29;;;;;;;607.83;548.97;;;;;;;;;;4896133;29;20040;-79
2021/07/18 09:19:13;;;;;;;605.85;547.03;;;;;;;;;;4912937;29;20131;-78
2021/07/18 09:21:48;;;;;;;620.70;561.15;;;;;;;;;;4917722;29;20414;-78
2021/07/18 09:24:22;;;;;;;631.38;572.08;;;;;;;;;;4918327;29;20016;-79
2021/07/18 09:27:06;;;;;;;637.28;578.00;;;;;;;;;;4918264;29;20031;-79
2021/07/18 09:29:32;;;;;;;645.13;585.60;;;;;;;;;;4918377;29;20114;-80
2021/07/18 09:32:13;;;;;;;651.97;592.38;;;;;;;;;;4911144;29;20043;-80
2021/07/18 09:34:40;;;;;;;667.90;607.95;;;;;;;;;;4899188;29;20028;-78
2021/07/18 09:37:11;;;;;;;669.00;609.30;;;;;;;;;;4898929;29;20020;-78
2021/07/18 09:39:37;;;;;;;672.25;612.30;;;;;;;;;;4905255;29;20031;-78
2021/07/18 09:42:03;;;;;;;683.35;623.22;;;;;;;;;;4899044;29;20024;-78
2021/07/18 09:44:39;;;;;;;691.42;631.00;;;;;;;;;;4915537;29;20024;-79
2021/07/18 09:47:05;;;;;;;706.45;645.65;;;;;;;;;;4898795;29;20473;-79
2021/07/18 09:49:35;;;;;;;703.90;643.35;;;;;;;;;;4910622;29;20118;-79
2021/07/18 09:52:16;;;;;;;705.85;645.22;;;;;;;;;;4917703;29;20488;-79
2021/07/18 09:54:42;;;;;;;701.75;641.42;;;;;;;;;;4917894;29;20028;-78
2021/07/18 09:57:09;;;;;;;712.78;652.15;;;;;;;;;;4898320;29;20028;-80
2021/07/18 09:59:36;;;;;;;729.50;668.45;;;;;;;;;;4898966;29;20035;-78
2021/07/18 10:02:04;;;;;;;729.63;668.92;;;;;;;;;;4898805;29;20051;-79
2021/07/18 10:04:30;;;;;;;724.45;663.92;;;;;;;;;;4898629;29;20031;-78
2021/07/18 10:07:06;;;;;;;732.75;671.75;;;;;;;;;;4898756;29;20043;-79
2021/07/18 10:09:32;;;;;;;735.90;674.78;;;;;;;;;;4898294;29;20020;-79
2021/07/18 10:11:58;;;;;;;731.85;670.85;;;;;;;;;;4915499;29;20026;-79
2021/07/18 10:14:24;;;;;;;738.80;677.63;;;;;;;;;;4915365;29;20028;-79
2021/07/18 10:16:53;;;;;;;743.03;682.03;;;;;;;;;;4902501;29;20052;-78
2021/07/18 10:19:20;;;;;;;750.63;689.30;;;;;;;;;;4917352;29;20110;-78
2021/07/18 10:21:46;;;;;;;765.22;703.35;;;;;;;;;;4917160;29;20130;-78
2021/07/18 10:24:14;;;;;;;773.50;711.65;;;;;;;;;;4915735;29;20028;-78
2021/07/18 10:26:40;;;;;;;785.45;723.58;;;;;;;;;;4917183;29;20098;-79
2021/07/18 10:29:06;;;;;;;788.00;726.00;;;;;;;;;;4927539;29;20035;-79
2021/07/18 10:31:43;;;;;;;776.03;714.50;;;;;;;;;;4898400;29;20028;-78
2021/07/18 10:34:09;;;;;;;781.58;720.05;;;;;;;;;;4898003;29;20060;-78
2021/07/18 10:36:36;;;;;;;791.30;729.33;;;;;;;;;;4897867;29;20032;-80
2021/07/18 10:39:22;;;;;;;793.58;732.03;;;;;;;;;;4898099;29;20124;-79
2021/07/18 10:41:49;;;;;;;791.40;729.63;;;;;;;;;;4914506;29;20439;-78
2021/07/18 10:44:16;;;;;;;801.10;739.05;;;;;;;;;;4914642;29;20075;-78
2021/07/18 10:46:42;;;;;;;821.47;758.97;;;;;;;;;;4897975;29;20372;-79
2021/07/18 10:49:15;;;;;;;816.75;754.55;;;;;;;;;;4897440;29;20043;-79
2021/07/18 10:51:50;;;;;;;800.88;739.28;;;;;;;;;;4904677;29;20363;-79
2021/07/18 10:54:17;;;;;;;801.50;739.28;;;;;;;;;;4913370;29;20038;-80
2021/07/18 10:56:43;;;;;;;805.53;743.72;;;;;;;;;;4911772;29;20189;-78
2021/07/18 10:59:09;;;;;;;821.78;759.55;;;;;;;;;;4914195;29;20538;-79
2021/07/18 11:01:39;;;;;;;820.90;758.78;;;;;;;;;;4897328;29;20028;-79
2021/07/18 11:04:06;;;;;;;818.17;756.30;;;;;;;;;;4897756;29;20067;-79
2021/07/18 11:06:34;;;;;;;820.30;758.40;;;;;;;;;;4909413;29;20046;-78
2021/07/18 11:09:06;;;;;;;819.58;757.53;;;;;;;;;;4916103;29;20027;-79
2021/07/18 11:11:49;;;;;;;823.72;761.78;;;;;;;;;;4916395;29;20175;-79
2021/07/18 11:14:20;;;;;;;830.83;768.50;;;;;;;;;;4923245;29;20020;-79
2021/07/18 11:16:50;;;;;;;814.50;752.72;;;;;;;;;;4900757;29;20024;-79
2021/07/18 11:19:38;;;;;;;828.67;766.67;;;;;;;;;;4933047;29;20044;-78
2021/07/18 11:22:11;;;;;;;839.80;777.15;;;;;;;;;;4916178;29;20451;-78
2021/07/18 11:24:53;;;;;;;849.35;786.63;;;;;;;;;;4915424;29;20065;-81
2021/07/18 11:27:33;;;;;;;842.92;780.63;;;;;;;;;;4933063;29;20043;-78
2021/07/18 11:30:00;;;;;;;839.10;777.03;;;;;;;;;;4915997;29;20028;-78
2021/07/18 11:32:30;;;;;;;851.45;789.08;;;;;;;;;;4915870;29;20028;-78
2021/07/18 11:34:56;;;;;;;847.88;785.47;;;;;;;;;;4915755;29;20574;-78
2021/07/18 11:37:23;;;;;;;851.97;789.50;;;;;;;;;;4915974;29;20028;-79
2021/07/18 11:39:49;;;;;;;835.25;773.42;;;;;;;;;;4932299;29;20044;-79
2021/07/18 11:42:16;;;;;;;831.55;769.75;;;;;;;;;;4915760;29;20038;-79
2021/07/18 11:44:44;;;;;;;844.60;782.30;;;;;;;;;;4915864;29;20090;-78
2021/07/18 11:47:11;;;;;;;834.20;772.22;;;;;;;;;;4932238;29;20070;-78
2021/07/18 11:49:39;;;;;;;828.53;766.60;;;;;;;;;;4913171;29;20071;-78
2021/07/18 11:52:05;;;;;;;829.47;767.05;;;;;;;;;;4906644;29;20367;-77
2021/07/18 11:54:32;;;;;;;811.10;749.60;;;;;;;;;;4913558;29;20036;-79
2021/07/18 11:56:58;;;;;;;821.42;759.38;;;;;;;;;;4897258;29;20764;-80
2021/07/18 11:59:25;;;;;;;822.30;760.10;;;;;;;;;;4896625;29;20024;-78
2021/07/18 12:01:52;;;;;;;807.55;745.95;;;;;;;;;;4896646;29;20035;-79
2021/07/18 12:04:25;;;;;;;824.00;761.65;;;;;;;;;;4896886;29;20035;-79
2021/07/18 12:06:55;;;;;;;829.33;767.38;;;;;;;;;;4907708;29;20126;-79
2021/07/18 12:09:22;;;;;;;841.80;779.60;;;;;;;;;;4928464;29;20031;-79
2021/07/18 12:11:49;;;;;;;845.78;783.42;;;;;;;;;;4915406;29;20131;-80
2021/07/18 12:14:16;;;;;;;842.83;780.25;;;;;;;;;;4915327;29;20028;-80
2021/07/18 12:16:44;;;;;;;840.50;778.45;;;;;;;;;;4915479;29;20435;-79
2021/07/18 12:19:10;;;;;;;821.53;759.97;;;;;;;;;;4932113;29;20044;-78
2021/07/18 12:21:37;;;;;;;814.20;752.65;;;;;;;;;;4911737;29;20115;-79
2021/07/18 12:24:12;;;;;;;813.58;752.28;;;;;;;;;;4896775;29;20070;-79
2021/07/18 12:26:39;;;;;;;822.65;760.90;;;;;;;;;;4896475;29;20431;-79
2021/07/18 12:29:05;;;;;;;828.55;766.65;;;;;;;;;;4913448;29;20043;-78
2021/07/18 12:31:31;;;;;;;823.15;761.35;;;;;;;;;;4896122;29;20060;-78
2021/07/18 12:33:57;;;;;;;826.83;764.83;;;;;;;;;;4896415;29;20028;-79
2021/07/18 12:36:24;;;;;;;816.97;755.53;;;;;;;;;;4896373;29;20025;-78
2021/07/18 12:38:50;;;;;;;821.03;759.47;;;;;;;;;;4897186;29;20035;-80
2021/07/18 12:41:16;;;;;;;815.47;754.22;;;;;;;;;;4896425;29;20035;-80
2021/07/18 12:43:42;;;;;;;826.17;764.58;;;;;;;;;;4913291;29;20071;-78
2021/07/18 12:46:11;;;;;;;842.15;780.10;;;;;;;;;;4895539;29;20052;-81
2021/07/18 12:48:37;;;;;;;854.63;792.42;;;;;;;;;;4896184;29;20028;-80
2021/07/18 12:51:13;;;;;;;856.17;794.00;;;;;;;;;;4905991;28;20063;-80
2021/07/18 12:53:39;;;;;;;848.40;786.33;;;;;;;;;;4937891;29;20038;-79
2021/07/18 12:56:09;;;;;;;839.30;777.47;;;;;;;;;;4916335;29;20028;-78
2021/07/18 12:58:41;;;;;;;843.05;780.95;;;;;;;;;;4911380;29;20479;-79
2021/07/18 13:01:09;;;;;;;822.08;760.60;;;;;;;;;;4918535;29;20157;-78
2021/07/18 13:03:39;;;;;;;815.00;753.50;;;;;;;;;;4918920;29;20024;-78
2021/07/18 13:06:06;;;;;;;811.58;749.95;;;;;;;;;;4926836;29;20040;-79
2021/07/18 13:08:44;;;;;;;804.60;743.25;;;;;;;;;;4915494;29;20028;-78
2021/07/18 13:11:30;;;;;;;804.47;742.90;;;;;;;;;;4915097;29;20029;-78
2021/07/18 13:13:56;;;;;;;803.95;742.67;;;;;;;;;;4904045;29;20020;-79
2021/07/18 13:16:33;;;;;;;802.53;741.38;;;;;;;;;;4899692;29;20340;-79
2021/07/18 13:19:09;;;;;;;814.72;753.05;;;;;;;;;;4916450;29;20090;-79
2021/07/18 13:21:37;;;;;;;807.05;745.85;;;;;;;;;;4914156;29;20028;-80
2021/07/18 13:24:03;;;;;;;810.42;749.03;;;;;;;;;;4918138;29;20501;-80
2021/07/18 13:26:31;;;;;;;803.35;742.08;;;;;;;;;;4917911;29;20098;-80
2021/07/18 13:29:13;;;;;;;803.25;742.25;;;;;;;;;;4918285;29;20023;-78
2021/07/18 13:31:40;;;;;;;796.35;735.38;;;;;;;;;;4918287;29;20019;-79
2021/07/18 13:34:06;;;;;;;796.22;735.17;;;;;;;;;;4917487;29;20035;-79
2021/07/18 13:36:32;;;;;;;810.88;749.25;;;;;;;;;;4917811;29;20032;-78
2021/07/18 13:39:28;;;;;;;809.97;748.40;;;;;;;;;;4918038;29;20062;-79
2021/07/18 13:42:10;;;;;;;795.72;734.55;;;;;;;;;;4915369;29;20028;-80
2021/07/18 13:44:37;;;;;;;803.42;742.03;;;;;;;;;;4910155;29;20031;-79
2021/07/18 13:47:04;;;;;;;795.72;734.72;;;;;;;;;;4906678;29;20677;-79
2021/07/18 13:49:30;;;;;;;798.25;736.85;;;;;;;;;;4917862;29;20059;-79
2021/07/18 13:51:57;;;;;;;790.97;729.47;;;;;;;;;;4934716;29;20039;-79
2021/07/18 13:54:25;;;;;;;778.55;717.38;;;;;;;;;;4917457;29;20063;-79